.
WxDataArchive / Data Records for 2011-03-28
2011-03-27 March 2011 2011-03-29

Data Records for Monday, 28 March 2011

Time	Temp	Chill	HIndex	Humid	Dewpt	 Wind 	HiWind	WindDir	Rain 	Barom 
-----	----	-----	------	-----	-----	------	------	-------	-----	----- 
00:00	29.0	29.0	29.0	40	7.7	2	7	112	0.00	30.189 
00:05	28.8	28.8	28.8	41	8.1	2	7	112	0.00	30.189 
00:10	28.7	28.7	28.7	42	8.5	1	6	112	0.00	30.189 
00:15	28.5	28.5	28.5	43	8.9	1	4	90	0.00	30.185 
00:20	28.4	28.4	28.4	44	9.3	1	4	90	0.00	30.185 
00:25	28.2	28.2	28.2	45	9.6	1	5	90	0.00	30.185 
00:30	28.1	28.1	28.1	46	10.0	2	7	90	0.00	30.186 
00:35	27.9	27.9	27.9	47	10.3	2	7	90	0.00	30.186 
00:40	27.8	27.8	27.8	48	10.7	1	5	90	0.00	30.186 
00:45	27.6	27.6	27.6	50	11.4	1	4	112	0.00	30.190 
00:50	27.5	27.5	27.5	51	11.8	2	7	112	0.00	30.190 
00:55	27.3	27.3	27.3	51	11.6	2	6	90	0.00	30.190 
01:00	27.2	27.2	27.2	53	12.4	1	4	90	0.00	30.197 
01:05	27.0	27.0	27.0	54	12.6	1	3	90	0.00	30.197 
01:10	26.7	26.7	26.7	54	12.3	1	4	90	0.00	30.197 
01:15	26.6	26.6	26.6	55	12.6	2	5	90	0.00	30.199 
01:20	26.6	26.6	26.6	56	13.0	1	4	90	0.00	30.199 
01:25	26.4	26.4	26.4	57	13.3	1	3	68	0.00	30.199 
01:30	26.1	26.1	26.1	58	13.4	1	5	112	0.00	30.198 
01:35	26.0	26.0	26.0	58	13.3	1	3	112	0.00	30.198 
01:40	26.0	26.0	26.0	59	13.7	1	5	90	0.00	30.198 
01:45	25.8	25.8	25.8	59	13.5	1	3	90	0.00	30.199 
01:50	25.7	25.7	25.7	60	13.8	1	3	90	0.00	30.199 
01:55	25.6	25.6	25.6	61	14.0	0	2	90	0.00	30.199 
02:00	25.4	25.4	25.4	61	13.9	1	3	90	0.00	30.202 
02:05	25.4	25.4	25.4	62	14.2	0	2	90	0.00	30.202 
02:10	25.3	25.3	25.3	62	14.1	0	0	---	0.00	30.202 
02:15	25.0	25.0	25.0	62	13.8	0	0	---	0.00	30.204 
02:20	24.7	24.7	24.7	63	13.9	0	0	---	0.00	30.204 
02:25	24.5	24.5	24.5	63	13.7	0	0	---	0.00	30.204 
02:30	24.2	24.2	24.2	64	13.8	0	0	---	0.00	30.205 
02:35	24.1	24.1	24.1	65	14.1	0	1	90	0.00	30.205 
02:40	24.1	24.1	24.1	66	14.4	0	2	90	0.00	30.205 
02:45	23.9	23.9	23.9	66	14.2	0	0	---	0.00	30.210 
02:50	23.9	23.9	23.9	66	14.2	0	0	---	0.00	30.210 
02:55	23.8	23.8	23.8	66	14.1	0	0	---	0.00	30.210 
03:00	23.6	23.6	23.6	66	13.9	0	0	---	0.00	30.204 
03:05	23.5	23.5	23.5	67	14.2	0	1	90	0.00	30.204 
03:10	23.5	23.5	23.5	67	14.2	0	0	---	0.00	30.204 
03:15	23.2	23.2	23.2	67	13.9	0	0	---	0.00	30.205 
03:20	23.0	23.0	23.0	67	13.7	0	0	---	0.00	30.205 
03:25	22.9	22.9	22.9	68	13.9	0	0	---	0.00	30.205 
03:30	22.7	22.7	22.7	68	13.8	0	0	---	0.00	30.208 
03:35	22.5	22.5	22.5	68	13.6	0	0	---	0.00	30.208 
03:40	22.2	22.2	22.2	69	13.6	0	0	---	0.00	30.208 
03:45	22.1	22.1	22.1	69	13.5	0	0	---	0.00	30.206 
03:50	21.9	21.9	21.9	70	13.6	0	0	---	0.00	30.206 
03:55	21.9	21.9	21.9	71	14.0	0	0	---	0.00	30.206 
04:00	22.1	22.1	22.1	71	14.2	0	0	---	0.00	30.207 
04:05	22.1	22.1	22.1	71	14.2	0	1	90	0.00	30.207 
04:10	22.1	22.1	22.1	71	14.2	0	0	---	0.00	30.207 
04:15	22.1	22.1	22.1	71	14.2	0	0	---	0.00	30.207 
04:20	21.9	21.9	21.9	71	14.0	0	0	---	0.00	30.207 
04:25	21.8	21.8	21.8	71	13.9	0	0	---	0.00	30.207 
04:30	21.4	21.4	21.4	72	13.8	0	0	---	0.00	30.210 
04:35	21.3	21.3	21.3	72	13.7	0	0	---	0.00	30.210 
04:40	21.1	21.1	21.1	72	13.5	0	0	---	0.00	30.210 
04:45	21.0	21.0	21.0	73	13.7	0	0	---	0.00	30.217 
04:50	20.8	20.8	20.8	73	13.5	0	0	---	0.00	30.217 
04:55	20.8	20.8	20.8	73	13.5	0	0	---	0.00	30.217 
05:00	20.6	20.6	20.6	74	13.7	0	0	---	0.00	30.221 
05:05	20.5	20.5	20.5	74	13.6	0	0	---	0.00	30.221 
05:10	20.3	20.3	20.3	75	13.7	0	0	---	0.00	30.221 
05:15	20.2	20.2	20.2	75	13.6	0	0	---	0.00	30.228 
05:20	20.2	20.2	20.2	75	13.6	0	0	---	0.00	30.228 
05:25	20.2	20.2	20.2	76	13.9	0	0	---	0.00	30.228 
05:30	20.2	20.2	20.2	76	13.9	0	0	---	0.00	30.233 
05:35	20.0	20.0	20.0	76	13.7	0	0	---	0.00	30.233 
05:40	20.0	20.0	20.0	76	13.7	0	0	---	0.00	30.233 
05:45	20.0	20.0	20.0	77	14.0	0	0	---	0.00	30.235 
05:50	19.9	19.9	19.9	77	13.9	0	0	---	0.00	30.235 
05:55	19.9	19.9	19.9	77	13.9	0	0	---	0.00	30.235 
06:00	19.9	19.9	19.9	77	13.9	0	0	---	0.00	30.245 
06:05	19.9	19.9	19.9	77	13.9	0	0	---	0.00	30.245 
06:10	19.7	19.7	19.7	77	13.7	0	0	---	0.00	30.245 
06:15	19.7	19.7	19.7	77	13.7	0	0	---	0.00	30.251 
06:20	19.5	19.5	19.5	77	13.5	0	0	---	0.00	30.251 
06:25	19.5	19.5	19.5	78	13.8	0	0	---	0.00	30.251 
06:30	19.7	19.7	19.7	78	14.0	0	0	---	0.00	30.256 
06:35	19.7	19.7	19.7	77	13.7	0	0	---	0.00	30.256 
06:40	19.7	19.7	19.7	77	13.7	0	0	---	0.00	30.256 
06:45	19.5	19.5	19.5	77	13.5	0	0	---	0.00	30.264 
06:50	19.5	19.5	19.5	77	13.5	0	0	---	0.00	30.264 
06:55	19.5	19.5	19.5	77	13.5	0	0	---	0.00	30.264 
07:00	19.5	19.5	19.5	77	13.5	0	0	---	0.00	30.264 
07:05	19.4	19.4	19.4	77	13.4	0	0	---	0.00	30.264 
07:10	19.4	19.4	19.4	77	13.4	0	0	---	0.00	30.264 
07:15	19.2	19.2	19.2	77	13.2	0	0	---	0.00	30.270 
07:20	19.2	19.2	19.2	77	13.2	0	0	---	0.00	30.270 
07:25	19.1	19.1	19.1	77	13.1	0	0	---	0.00	30.270 
07:30	19.1	19.1	19.1	77	13.1	0	0	---	0.00	30.272 
07:35	18.9	18.9	18.9	76	12.6	0	0	---	0.00	30.272 
07:40	18.9	18.9	18.9	76	12.6	0	0	---	0.00	30.272 
07:45	18.9	18.9	18.9	76	12.6	0	0	---	0.00	30.281 
07:50	19.1	19.1	19.1	76	12.8	0	0	---	0.00	30.281 
07:55	19.1	19.1	19.1	76	12.8	0	0	---	0.00	30.281 
08:00	19.2	19.2	19.2	76	12.9	0	0	---	0.00	30.285 
08:05	19.4	19.4	19.4	77	13.4	0	0	---	0.00	30.285 
08:10	19.5	19.5	19.5	77	13.5	0	0	---	0.00	30.285 
08:15	19.9	19.9	19.9	77	13.9	0	0	---	0.00	30.290 
08:20	20.5	20.5	20.5	77	14.5	0	0	---	0.00	30.290 
08:25	21.3	21.3	21.3	76	14.9	0	0	---	0.00	30.290 
08:30	22.1	22.1	22.1	75	15.4	0	0	---	0.00	30.287 
08:35	23.2	23.2	23.2	73	15.9	0	1	90	0.00	30.287 
08:40	24.4	24.4	24.4	70	16.0	0	1	90	0.00	30.287 
08:45	25.3	25.3	25.3	68	16.2	0	1	90	0.00	30.283 
08:50	25.7	25.7	25.7	66	15.9	0	1	90	0.00	30.283 
08:55	26.4	26.4	26.4	64	15.9	0	1	90	0.00	30.283 
09:00	26.7	26.7	26.7	63	15.8	0	1	90	0.00	30.282 
09:05	26.9	26.9	26.9	63	16.0	0	1	90	0.00	30.282 
09:10	27.0	27.0	27.0	62	15.7	0	3	90	0.00	30.282 
09:15	27.2	27.2	27.2	62	15.9	0	2	90	0.00	30.285 
09:20	27.5	27.5	27.5	62	16.2	0	1	90	0.00	30.285 
09:25	27.8	27.8	27.8	61	16.1	0	3	90	0.00	30.285 
09:30	28.1	28.1	28.1	61	16.4	0	2	90	0.00	30.284 
09:35	28.2	28.2	28.2	60	16.1	0	2	90	0.00	30.284 
09:40	28.5	28.5	28.5	59	16.0	1	3	90	0.00	30.284 
09:45	28.8	28.8	28.8	60	16.7	1	4	90	0.00	30.282 
09:50	29.1	29.1	29.1	58	16.2	1	4	90	0.00	30.282 
09:55	29.4	29.4	29.4	59	16.9	1	3	90	0.00	30.282 
10:00	29.8	29.8	29.8	58	16.8	0	1	90	0.00	30.281 
10:05	30.4	30.4	30.4	57	17.0	1	3	90	0.00	30.281 
10:10	30.9	30.9	30.9	57	17.5	0	2	90	0.00	30.281 
10:15	31.0	31.0	31.0	56	17.2	0	1	90	0.00	30.279 
10:20	31.6	31.6	31.6	55	17.3	1	6	90	0.00	30.279 
10:25	31.8	31.8	31.8	55	17.5	2	5	90	0.00	30.279 
10:30	31.9	31.9	31.9	54	17.2	1	2	90	0.00	30.275 
10:35	32.2	32.2	32.2	54	17.4	1	3	90	0.00	30.275 
10:40	32.2	32.2	32.2	53	17.0	1	4	68	0.00	30.275 
10:45	32.2	32.2	32.2	54	17.4	2	4	90	0.00	30.277 
10:50	32.4	32.4	32.4	54	17.6	0	2	90	0.00	30.277 
10:55	32.7	32.7	32.7	54	17.9	1	3	90	0.00	30.277 
11:00	33.1	33.1	33.1	51	17.0	2	5	90	0.00	30.280 
11:05	33.2	33.2	33.2	52	17.5	0	2	225	0.00	30.280 
11:10	33.5	33.5	33.5	52	17.8	1	6	22	0.00	30.280 
11:15	33.8	33.8	33.8	53	18.5	0	2	22	0.00	30.279 
11:20	33.8	33.8	33.8	48	16.2	1	4	45	0.00	30.279 
11:25	34.1	34.1	34.1	47	16.0	1	5	68	0.00	30.279 
11:30	34.3	34.3	34.3	49	17.1	0	2	68	0.00	30.278 
11:35	34.6	34.6	34.6	46	16.0	1	3	68	0.00	30.278 
11:40	35.0	35.0	35.0	45	15.8	1	6	45	0.00	30.278 
11:45	35.3	35.3	35.3	46	16.6	0	2	45	0.00	30.276 
11:50	35.8	35.8	35.8	43	15.5	1	3	0	0.00	30.276 
11:55	35.9	35.9	35.9	42	15.1	2	5	90	0.00	30.276 
12:00	35.2	35.2	35.2	42	14.4	1	5	90	0.00	30.276 
12:05	35.5	35.5	35.5	44	15.8	0	2	90	0.00	30.276 
12:10	35.9	35.9	35.9	42	15.1	1	5	0	0.00	30.276 
12:15	36.0	36.0	36.0	40	14.0	0	3	90	0.00	30.275 
12:20	36.5	36.5	36.5	42	15.6	1	3	90	0.00	30.275 
12:25	36.9	36.9	36.9	45	17.6	1	4	90	0.00	30.275 
12:30	36.8	36.8	36.8	41	15.3	2	6	90	0.00	30.271 
12:35	36.6	36.6	36.6	41	15.2	1	4	90	0.00	30.271 
12:40	36.8	36.8	36.8	41	15.3	0	2	90	0.00	30.271 
12:45	37.0	37.0	37.0	42	16.1	1	2	338	0.00	30.266 
12:50	37.0	37.0	37.0	40	14.9	0	3	338	0.00	30.266 
12:55	37.6	37.6	37.6	40	15.5	1	5	112	0.00	30.266 
13:00	37.3	37.3	37.3	40	15.2	2	6	112	0.00	30.261 
13:05	37.2	37.2	37.2	41	15.7	1	2	315	0.00	30.261 
13:10	37.2	37.2	37.2	39	14.6	2	7	112	0.00	30.261 
13:15	37.6	37.6	37.6	42	16.6	2	6	112	0.00	30.262 
13:20	37.9	37.9	37.9	40	15.8	1	4	90	0.00	30.262 
13:25	38.2	38.2	38.2	37	14.2	1	4	45	0.00	30.262 
13:30	38.3	38.3	38.3	39	15.5	1	6	112	0.00	30.260 
13:35	38.5	38.5	38.5	37	14.5	1	3	45	0.00	30.260 
13:40	38.3	38.3	38.3	33	11.7	1	4	112	0.00	30.260 
13:45	38.0	38.0	38.0	36	13.4	2	7	112	0.00	30.257 
13:50	38.2	38.2	38.2	37	14.2	1	4	292	0.00	30.257 
13:55	38.6	38.6	38.6	37	14.6	0	3	292	0.00	30.257 
14:00	38.8	38.8	38.8	35	13.5	1	3	0	0.00	30.250 
14:05	38.6	38.6	38.6	36	14.0	1	3	0	0.00	30.250 
14:10	38.6	38.6	38.6	34	12.7	1	3	22	0.00	30.250 
14:15	38.9	38.9	38.9	36	14.2	1	6	0	0.00	30.249 
14:20	39.5	39.5	39.5	34	13.5	1	4	270	0.00	30.249 
14:25	39.5	39.5	39.5	31	11.4	1	5	0	0.00	30.249 
14:30	39.1	39.1	39.1	32	11.8	2	5	270	0.00	30.248 
14:35	39.1	39.1	39.1	35	13.8	0	2	270	0.00	30.248 
14:40	39.5	39.5	39.5	32	12.1	0	2	270	0.00	30.248 
14:45	39.5	39.5	39.5	28	9.1	2	4	338	0.00	30.245 
14:50	39.3	39.3	39.3	31	11.2	1	4	315	0.00	30.245 
14:55	39.6	39.6	39.6	31	11.5	0	2	338	0.00	30.245 
15:00	39.8	39.8	39.8	31	11.7	1	3	90	0.00	30.243 
15:05	39.9	39.9	39.9	30	11.0	1	3	90	0.00	30.243 
15:10	40.1	40.1	40.1	32	12.6	1	3	90	0.00	30.243 
15:15	40.6	40.6	40.6	33	13.8	1	4	112	0.00	30.237 
15:20	40.9	40.9	40.9	30	11.9	0	2	112	0.00	30.237 
15:25	41.3	41.3	41.3	31	13.0	1	5	292	0.00	30.237 
15:30	41.3	41.3	41.3	27	9.9	1	4	292	0.00	30.232 
15:35	41.1	41.1	41.1	28	10.5	1	3	292	0.00	30.232 
15:40	41.1	41.1	41.1	29	11.3	1	3	338	0.00	30.232 
15:45	41.1	41.1	41.1	28	10.5	1	3	338	0.00	30.231 
15:50	41.1	41.1	41.1	26	8.9	1	3	90	0.00	30.231 
15:55	40.8	40.8	40.8	28	10.2	3	6	90	0.00	30.231 
16:00	41.2	41.2	41.2	27	9.8	1	3	292	0.00	30.223 
16:05	40.9	40.9	40.9	24	6.9	1	4	22	0.00	30.223 
16:10	41.1	41.1	41.1	26	8.9	1	4	22	0.00	30.223 
16:15	41.2	41.2	41.2	28	10.6	1	5	112	0.00	30.218 
16:20	41.1	41.1	41.1	25	8.0	1	4	90	0.00	30.218 
16:25	41.1	41.1	41.1	27	9.7	0	2	45	0.00	30.218 
16:30	41.6	41.6	41.6	29	11.7	1	5	22	0.00	30.219 
16:35	41.8	41.8	41.8	26	9.5	1	3	135	0.00	30.219 
16:40	41.5	41.5	41.5	25	8.3	1	3	338	0.00	30.219 
16:45	41.1	41.1	41.1	26	8.9	0	2	338	0.00	30.215 
16:50	41.1	41.1	41.1	23	6.2	2	6	112	0.00	30.215 
16:55	41.1	41.1	41.1	25	8.0	1	5	135	0.00	30.215 
17:00	41.1	41.1	41.1	25	8.0	1	3	248	0.00	30.218 
17:05	41.5	41.5	41.5	25	8.3	1	3	315	0.00	30.218 
17:10	41.8	41.8	41.8	25	8.6	1	4	248	0.00	30.218 
17:15	41.5	41.5	41.5	25	8.3	1	4	338	0.00	30.217 
17:20	41.5	41.5	41.5	25	8.3	1	2	338	0.00	30.217 
17:25	41.5	41.5	41.5	24	7.4	0	1	315	0.00	30.217 
17:30	41.3	41.3	41.3	24	7.3	1	4	338	0.00	30.218 
17:35	41.2	41.2	41.2	24	7.2	1	3	135	0.00	30.218 
17:40	41.2	41.2	41.2	24	7.2	1	4	45	0.00	30.218 
17:45	41.1	41.1	41.1	24	7.1	0	3	45	0.00	30.218 
17:50	41.2	41.2	41.2	24	7.2	0	2	112	0.00	30.218 
17:55	41.2	41.2	41.2	24	7.2	0	3	0	0.00	30.218 
18:00	41.1	41.1	41.1	24	7.1	0	3	90	0.00	30.219 
18:05	40.8	40.8	40.8	24	6.8	2	9	338	0.00	30.219 
18:10	40.8	40.8	40.8	23	5.9	1	4	112	0.00	30.219 
18:15	40.6	40.6	40.6	23	5.7	1	4	22	0.00	30.220 
18:20	40.6	40.6	40.6	24	6.7	0	4	0	0.00	30.220 
18:25	40.3	40.3	40.3	23	5.5	1	6	292	0.00	30.220 
18:30	40.1	40.1	40.1	24	6.2	1	4	90	0.00	30.219 
18:35	39.9	39.9	39.9	24	6.1	1	5	90	0.00	30.219 
18:40	39.8	39.8	39.8	23	5.1	0	2	315	0.00	30.219 
18:45	39.8	39.8	39.8	25	6.9	0	3	315	0.00	30.218 
18:50	39.6	39.6	39.6	24	5.8	0	2	135	0.00	30.218 
18:55	39.5	39.5	39.5	24	5.7	0	3	0	0.00	30.218 
19:00	39.3	39.3	39.3	24	5.6	1	3	0	0.00	30.218 
19:05	39.1	39.1	39.1	24	5.4	0	2	0	0.00	30.218 
19:10	38.9	38.9	38.9	24	5.2	0	2	315	0.00	30.218 
19:15	38.8	38.8	38.8	24	5.1	0	1	315	0.00	30.218 
19:20	38.6	38.6	38.6	24	5.0	0	1	315	0.00	30.218 
19:25	38.3	38.3	38.3	25	5.6	0	2	315	0.00	30.218 
19:30	38.0	38.0	38.0	25	5.3	0	2	315	0.00	30.215 
19:35	37.8	37.8	37.8	25	5.2	0	2	0	0.00	30.215 
19:40	37.6	37.6	37.6	26	5.9	0	1	0	0.00	30.215 
19:45	37.3	37.3	37.3	27	6.4	0	1	0	0.00	30.213 
19:50	37.0	37.0	37.0	26	5.3	0	2	0	0.00	30.213 
19:55	36.8	36.8	36.8	26	5.2	0	1	0	0.00	30.213 
20:00	36.5	36.5	36.5	26	4.9	0	1	0	0.00	30.217 
20:05	36.2	36.2	36.2	27	5.5	0	0	---	0.00	30.217 
20:10	35.9	35.9	35.9	27	5.2	0	1	0	0.00	30.217 
20:15	35.6	35.6	35.6	27	5.0	0	0	---	0.00	30.210 
20:20	35.3	35.3	35.3	28	5.5	0	0	---	0.00	30.210 
20:25	35.0	35.0	35.0	28	5.2	0	0	---	0.00	30.210 
20:30	34.7	34.7	34.7	28	5.0	0	0	---	0.00	30.214 
20:35	34.6	34.6	34.6	27	4.1	0	0	---	0.00	30.214 
20:40	34.3	34.3	34.3	28	4.6	0	0	---	0.00	30.214 
20:45	34.0	34.0	34.0	28	4.4	0	0	---	0.00	30.219 
20:50	33.7	33.7	33.7	29	4.9	0	0	---	0.00	30.219 
20:55	33.4	33.4	33.4	29	4.6	0	0	---	0.00	30.219 
21:00	33.1	33.1	33.1	30	5.1	0	0	---	0.00	30.223 
21:05	32.8	32.8	32.8	30	4.8	0	0	---	0.00	30.223 
21:10	32.5	32.5	32.5	31	5.3	0	0	---	0.00	30.223 
21:15	32.1	32.1	32.1	31	4.9	0	0	---	0.00	30.219 
21:20	31.8	31.8	31.8	32	5.3	0	0	---	0.00	30.219 
21:25	31.3	31.3	31.3	33	5.6	0	0	---	0.00	30.219 
21:30	31.0	31.0	31.0	33	5.3	0	0	---	0.00	30.228 
21:35	30.7	30.7	30.7	35	6.3	0	0	---	0.00	30.228 
21:40	30.6	30.6	30.6	35	6.2	0	0	---	0.00	30.228 
21:45	30.3	30.3	30.3	36	6.6	0	0	---	0.00	30.234 
21:50	30.1	30.1	30.1	37	7.0	0	0	---	0.00	30.234 
21:55	29.8	29.8	29.8	38	7.3	0	0	---	0.00	30.234 
22:00	29.5	29.5	29.5	39	7.6	0	0	---	0.00	30.229 
22:05	29.4	29.4	29.4	39	7.5	0	0	---	0.00	30.229 
22:10	29.1	29.1	29.1	39	7.3	0	0	---	0.00	30.229 
22:15	28.8	28.8	28.8	39	7.0	0	0	---	0.00	30.227 
22:20	28.7	28.7	28.7	42	8.5	0	0	---	0.00	30.227 
22:25	28.5	28.5	28.5	42	8.4	0	0	---	0.00	30.227 
22:30	28.4	28.4	28.4	43	8.8	0	0	---	0.00	30.230 
22:35	28.2	28.2	28.2	43	8.6	0	0	---	0.00	30.230 
22:40	28.1	28.1	28.1	43	8.5	0	0	---	0.00	30.230 
22:45	28.1	28.1	28.1	44	9.0	0	0	---	0.00	30.237 
22:50	28.1	28.1	28.1	45	9.5	0	0	---	0.00	30.237 
22:55	28.1	28.1	28.1	45	9.5	0	0	---	0.00	30.237 
23:00	28.1	28.1	28.1	45	9.5	0	0	---	0.00	30.243 
23:05	27.9	27.9	27.9	44	8.8	0	0	---	0.00	30.243 
23:10	27.8	27.8	27.8	45	9.3	0	0	---	0.00	30.243 
23:15	27.6	27.6	27.6	45	9.1	0	0	---	0.00	30.244 
23:20	27.5	27.5	27.5	46	9.5	0	0	---	0.00	30.244 
23:25	27.3	27.3	27.3	46	9.3	0	0	---	0.00	30.244 
23:30	27.0	27.0	27.0	46	9.0	0	0	---	0.00	30.249 
23:35	27.0	27.0	27.0	46	9.0	0	0	---	0.00	30.249 
23:40	26.9	26.9	26.9	47	9.4	0	0	---	0.00	30.249 
23:45	26.7	26.7	26.7	47	9.2	0	0	---	0.00	30.255 
23:50	26.6	26.6	26.6	48	9.6	0	0	---	0.00	30.255 
23:55	26.3	26.3	26.3	48	9.3	0	0	---	0.00	30.255 

CoCoRaHS
IN-AL-39
A2 Web Hosting
Creative Commons License
GoDaddy
search engine by freefind advanced

loaded 2018-11-13 21:51:53 • last modified 2010-11-18 10:43:29
Privacy PolicyDisclaimer
• wx.awcolley.com is powered by PmWiki v.2002016 •
• all content (unless otherwise noted) © 2018 A W Colley